sensor_id;sensor_type;location;lat;lon;timestamp;temperature;humidity
1447;DHT22;717;51.522;7.266;2023-09-19T00:00:57;20.20;99.90
1447;DHT22;717;51.522;7.266;2023-09-19T00:03:28;20.10;99.90
1447;DHT22;717;51.522;7.266;2023-09-19T00:05:58;20.10;99.90
1447;DHT22;717;51.522;7.266;2023-09-19T00:08:28;20.00;99.90
1447;DHT22;717;51.522;7.266;2023-09-19T00:11:03;20.00;99.90
1447;DHT22;717;51.522;7.266;2023-09-19T00:13:33;20.00;99.90
1447;DHT22;717;51.522;7.266;2023-09-19T00:16:08;19.80;99.90
1447;DHT22;717;51.522;7.266;2023-09-19T00:18:41;19.70;99.90
1447;DHT22;717;51.522;7.266;2023-09-19T00:21:11;19.70;99.90
1447;DHT22;717;51.522;7.266;2023-09-19T00:23:42;19.60;99.90
1447;DHT22;717;51.522;7.266;2023-09-19T00:26:15;19.60;99.90
1447;DHT22;717;51.522;7.266;2023-09-19T00:28:48;19.50;99.90
1447;DHT22;717;51.522;7.266;2023-09-19T00:31:18;19.50;99.90
1447;DHT22;717;51.522;7.266;2023-09-19T00:33:53;19.40;99.90
1447;DHT22;717;51.522;7.266;2023-09-19T00:36:25;19.40;99.90
1447;DHT22;717;51.522;7.266;2023-09-19T00:38:56;19.40;99.90
1447;DHT22;717;51.522;7.266;2023-09-19T00:41:29;19.50;99.90
1447;DHT22;717;51.522;7.266;2023-09-19T00:43:59;19.50;99.90
1447;DHT22;717;51.522;7.266;2023-09-19T00:46:31;19.40;99.90
1447;DHT22;717;51.522;7.266;2023-09-19T00:49:01;19.50;99.90
1447;DHT22;717;51.522;7.266;2023-09-19T00:51:31;19.50;99.90
1447;DHT22;717;51.522;7.266;2023-09-19T00:54:03;19.50;99.90
1447;DHT22;717;51.522;7.266;2023-09-19T00:56:37;19.40;99.90
1447;DHT22;717;51.522;7.266;2023-09-19T00:59:08;19.50;99.90
1447;DHT22;717;51.522;7.266;2023-09-19T01:01:39;19.50;99.90
1447;DHT22;717;51.522;7.266;2023-09-19T01:04:09;19.40;99.90
1447;DHT22;717;51.522;7.266;2023-09-19T01:06:39;19.40;99.90
1447;DHT22;717;51.522;7.266;2023-09-19T01:09:11;19.30;99.90
1447;DHT22;717;51.522;7.266;2023-09-19T01:11:47;19.30;99.90
1447;DHT22;717;51.522;7.266;2023-09-19T01:14:30;19.30;99.90
1447;DHT22;717;51.522;7.266;2023-09-19T01:17:09;19.20;99.90
1447;DHT22;717;51.522;7.266;2023-09-19T01:20:06;19.10;99.90
1447;DHT22;717;51.522;7.266;2023-09-19T01:22:48;19.00;99.90
1447;DHT22;717;51.522;7.266;2023-09-19T01:25:50;19.00;99.90
1447;DHT22;717;51.522;7.266;2023-09-19T01:28:30;19.10;99.90
1447;DHT22;717;51.522;7.266;2023-09-19T01:31:09;19.00;99.90
1447;DHT22;717;51.522;7.266;2023-09-19T01:33:59;19.00;99.90
1447;DHT22;717;51.522;7.266;2023-09-19T01:36:34;19.00;99.90
1447;DHT22;717;51.522;7.266;2023-09-19T01:39:08;19.00;99.90
1447;DHT22;717;51.522;7.266;2023-09-19T01:41:56;19.10;99.90
1447;DHT22;717;51.522;7.266;2023-09-19T01:44:48;19.00;99.90
1447;DHT22;717;51.522;7.266;2023-09-19T01:47:26;19.00;99.90
1447;DHT22;717;51.522;7.266;2023-09-19T01:50:07;19.00;99.90
1447;DHT22;717;51.522;7.266;2023-09-19T01:52:47;19.00;99.90
1447;DHT22;717;51.522;7.266;2023-09-19T01:55:19;19.10;99.90
1447;DHT22;717;51.522;7.266;2023-09-19T01:57:58;19.20;99.90
1447;DHT22;717;51.522;7.266;2023-09-19T02:00:32;19.20;99.90
1447;DHT22;717;51.522;7.266;2023-09-19T02:03:07;19.10;99.90
1447;DHT22;717;51.522;7.266;2023-09-19T02:05:38;19.10;99.90
1447;DHT22;717;51.522;7.266;2023-09-19T02:08:09;19.10;99.90
1447;DHT22;717;51.522;7.266;2023-09-19T02:10:39;19.00;99.90
1447;DHT22;717;51.522;7.266;2023-09-19T02:13:09;19.10;99.90
1447;DHT22;717;51.522;7.266;2023-09-19T02:15:42;19.00;99.90
1447;DHT22;717;51.522;7.266;2023-09-19T02:18:15;19.00;99.90
1447;DHT22;717;51.522;7.266;2023-09-19T02:20:45;19.00;99.90
1447;DHT22;717;51.522;7.266;2023-09-19T02:23:15;19.00;99.90
1447;DHT22;717;51.522;7.266;2023-09-19T02:25:52;19.00;99.90
1447;DHT22;717;51.522;7.266;2023-09-19T02:28:22;19.00;99.90
1447;DHT22;717;51.522;7.266;2023-09-19T02:30:57;19.10;99.90
1447;DHT22;717;51.522;7.266;2023-09-19T02:33:30;19.00;99.90
1447;DHT22;717;51.522;7.266;2023-09-19T02:36:01;19.00;99.90
1447;DHT22;717;51.522;7.266;2023-09-19T02:38:33;18.90;99.90
1447;DHT22;717;51.522;7.266;2023-09-19T02:41:04;18.90;99.90
1447;DHT22;717;51.522;7.266;2023-09-19T02:43:34;18.90;99.90
1447;DHT22;717;51.522;7.266;2023-09-19T02:46:05;18.90;99.90
1447;DHT22;717;51.522;7.266;2023-09-19T02:48:38;18.80;99.90
1447;DHT22;717;51.522;7.266;2023-09-19T02:51:09;18.70;99.90
1447;DHT22;717;51.522;7.266;2023-09-19T02:53:39;18.80;99.90
1447;DHT22;717;51.522;7.266;2023-09-19T02:56:09;18.80;99.90
1447;DHT22;717;51.522;7.266;2023-09-19T02:58:41;18.70;99.90
1447;DHT22;717;51.522;7.266;2023-09-19T03:01:12;18.70;99.90
1447;DHT22;717;51.522;7.266;2023-09-19T03:03:45;18.60;99.90
1447;DHT22;717;51.522;7.266;2023-09-19T03:06:15;18.60;99.90
1447;DHT22;717;51.522;7.266;2023-09-19T03:08:47;18.70;99.90
1447;DHT22;717;51.522;7.266;2023-09-19T03:11:21;18.60;99.90
1447;DHT22;717;51.522;7.266;2023-09-19T03:13:56;18.70;99.90
1447;DHT22;717;51.522;7.266;2023-09-19T03:16:26;18.70;99.90
1447;DHT22;717;51.522;7.266;2023-09-19T03:19:01;18.70;99.90
1447;DHT22;717;51.522;7.266;2023-09-19T03:21:32;18.70;99.90
1447;DHT22;717;51.522;7.266;2023-09-19T03:24:04;18.60;99.90
1447;DHT22;717;51.522;7.266;2023-09-19T03:26:34;18.60;99.90
1447;DHT22;717;51.522;7.266;2023-09-19T03:29:05;18.60;99.90
1447;DHT22;717;51.522;7.266;2023-09-19T03:31:38;18.60;99.90
1447;DHT22;717;51.522;7.266;2023-09-19T03:34:11;18.60;99.90
1447;DHT22;717;51.522;7.266;2023-09-19T03:36:41;18.50;99.90
1447;DHT22;717;51.522;7.266;2023-09-19T03:39:11;18.50;99.90
1447;DHT22;717;51.522;7.266;2023-09-19T03:41:42;18.50;99.90
1447;DHT22;717;51.522;7.266;2023-09-19T03:44:13;18.60;99.90
1447;DHT22;717;51.522;7.266;2023-09-19T03:46:43;18.60;99.90
1447;DHT22;717;51.522;7.266;2023-09-19T03:49:15;18.50;99.90
1447;DHT22;717;51.522;7.266;2023-09-19T03:51:46;18.50;99.90
1447;DHT22;717;51.522;7.266;2023-09-19T03:54:16;18.50;99.90
1447;DHT22;717;51.522;7.266;2023-09-19T03:56:46;18.50;99.90
1447;DHT22;717;51.522;7.266;2023-09-19T03:59:17;18.50;99.90
1447;DHT22;717;51.522;7.266;2023-09-19T04:01:48;18.50;99.90
1447;DHT22;717;51.522;7.266;2023-09-19T04:04:25;18.50;99.90
1447;DHT22;717;51.522;7.266;2023-09-19T04:06:56;18.50;99.90
1447;DHT22;717;51.522;7.266;2023-09-19T04:09:27;18.50;99.90
1447;DHT22;717;51.522;7.266;2023-09-19T04:11:58;18.50;99.90
1447;DHT22;717;51.522;7.266;2023-09-19T04:14:28;18.50;99.90
1447;DHT22;717;51.522;7.266;2023-09-19T04:16:58;18.60;99.90
1447;DHT22;717;51.522;7.266;2023-09-19T04:19:31;18.60;99.90
1447;DHT22;717;51.522;7.266;2023-09-19T04:22:02;18.60;99.90
1447;DHT22;717;51.522;7.266;2023-09-19T04:24:32;18.60;99.90
1447;DHT22;717;51.522;7.266;2023-09-19T04:27:03;18.60;99.90
1447;DHT22;717;51.522;7.266;2023-09-19T04:29:34;18.60;99.90
1447;DHT22;717;51.522;7.266;2023-09-19T04:32:05;18.60;99.90
1447;DHT22;717;51.522;7.266;2023-09-19T04:34:39;18.60;99.90
1447;DHT22;717;51.522;7.266;2023-09-19T04:37:10;18.60;99.90
1447;DHT22;717;51.522;7.266;2023-09-19T04:39:42;18.60;99.90
1447;DHT22;717;51.522;7.266;2023-09-19T04:42:13;18.60;99.90
1447;DHT22;717;51.522;7.266;2023-09-19T04:44:45;18.60;99.90
1447;DHT22;717;51.522;7.266;2023-09-19T04:47:16;18.60;99.90
1447;DHT22;717;51.522;7.266;2023-09-19T04:49:49;18.60;99.90
1447;DHT22;717;51.522;7.266;2023-09-19T04:52:19;18.60;99.90
1447;DHT22;717;51.522;7.266;2023-09-19T04:54:49;18.60;99.90
1447;DHT22;717;51.522;7.266;2023-09-19T04:57:19;18.60;99.90
1447;DHT22;717;51.522;7.266;2023-09-19T04:59:49;18.60;99.90
1447;DHT22;717;51.522;7.266;2023-09-19T05:02:21;18.50;99.90
1447;DHT22;717;51.522;7.266;2023-09-19T05:04:53;18.60;99.90
1447;DHT22;717;51.522;7.266;2023-09-19T05:07:26;18.60;99.90
1447;DHT22;717;51.522;7.266;2023-09-19T05:09:56;18.60;99.90
1447;DHT22;717;51.522;7.266;2023-09-19T05:12:27;18.60;99.90
1447;DHT22;717;51.522;7.266;2023-09-19T05:14:57;18.60;99.90
1447;DHT22;717;51.522;7.266;2023-09-19T05:17:27;18.60;99.90
1447;DHT22;717;51.522;7.266;2023-09-19T05:19:59;18.60;99.90
1447;DHT22;717;51.522;7.266;2023-09-19T05:22:32;18.60;99.90
1447;DHT22;717;51.522;7.266;2023-09-19T05:25:16;18.60;99.90
1447;DHT22;717;51.522;7.266;2023-09-19T05:27:47;18.60;99.90
1447;DHT22;717;51.522;7.266;2023-09-19T05:30:20;18.60;99.90
1447;DHT22;717;51.522;7.266;2023-09-19T05:32:50;18.70;99.90
1447;DHT22;717;51.522;7.266;2023-09-19T05:35:23;18.70;99.90
1447;DHT22;717;51.522;7.266;2023-09-19T05:37:54;18.70;99.90
1447;DHT22;717;51.522;7.266;2023-09-19T05:40:25;18.70;99.90
1447;DHT22;717;51.522;7.266;2023-09-19T05:42:55;18.60;99.90
1447;DHT22;717;51.522;7.266;2023-09-19T05:45:26;18.60;99.90
1447;DHT22;717;51.522;7.266;2023-09-19T05:47:56;18.70;99.90
1447;DHT22;717;51.522;7.266;2023-09-19T05:50:35;18.60;99.90
1447;DHT22;717;51.522;7.266;2023-09-19T05:53:06;18.60;99.90
1447;DHT22;717;51.522;7.266;2023-09-19T05:55:39;18.60;99.90
1447;DHT22;717;51.522;7.266;2023-09-19T05:58:09;18.60;99.90
1447;DHT22;717;51.522;7.266;2023-09-19T06:00:41;18.60;99.90
1447;DHT22;717;51.522;7.266;2023-09-19T06:03:12;18.70;99.90
1447;DHT22;717;51.522;7.266;2023-09-19T06:05:44;18.60;99.90
1447;DHT22;717;51.522;7.266;2023-09-19T06:08:16;18.60;99.90
1447;DHT22;717;51.522;7.266;2023-09-19T06:10:46;18.50;99.90
1447;DHT22;717;51.522;7.266;2023-09-19T06:13:19;18.50;99.90
1447;DHT22;717;51.522;7.266;2023-09-19T06:15:50;18.50;99.90
1447;DHT22;717;51.522;7.266;2023-09-19T06:18:21;18.60;99.90
1447;DHT22;717;51.522;7.266;2023-09-19T06:20:57;18.60;99.90
1447;DHT22;717;51.522;7.266;2023-09-19T06:23:27;18.60;99.90
1447;DHT22;717;51.522;7.266;2023-09-19T06:25:57;18.70;99.90
1447;DHT22;717;51.522;7.266;2023-09-19T06:28:27;18.70;99.90
1447;DHT22;717;51.522;7.266;2023-09-19T06:30:57;18.70;99.90
1447;DHT22;717;51.522;7.266;2023-09-19T06:33:27;18.70;99.90
1447;DHT22;717;51.522;7.266;2023-09-19T06:36:03;18.60;99.90
1447;DHT22;717;51.522;7.266;2023-09-19T06:38:33;18.60;99.90
1447;DHT22;717;51.522;7.266;2023-09-19T06:41:04;18.70;99.90
1447;DHT22;717;51.522;7.266;2023-09-19T06:43:35;18.70;99.90
1447;DHT22;717;51.522;7.266;2023-09-19T06:46:06;18.70;99.90
1447;DHT22;717;51.522;7.266;2023-09-19T06:48:37;18.70;99.90
1447;DHT22;717;51.522;7.266;2023-09-19T06:51:10;18.70;99.90
1447;DHT22;717;51.522;7.266;2023-09-19T06:53:42;18.70;99.90
1447;DHT22;717;51.522;7.266;2023-09-19T06:56:12;18.60;99.90
1447;DHT22;717;51.522;7.266;2023-09-19T06:58:42;18.60;99.90
1447;DHT22;717;51.522;7.266;2023-09-19T07:01:13;18.60;99.90
1447;DHT22;717;51.522;7.266;2023-09-19T07:03:43;18.60;99.90
1447;DHT22;717;51.522;7.266;2023-09-19T07:06:17;18.60;99.90
1447;DHT22;717;51.522;7.266;2023-09-19T07:08:47;18.60;99.90
1447;DHT22;717;51.522;7.266;2023-09-19T07:11:17;18.60;99.90
1447;DHT22;717;51.522;7.266;2023-09-19T07:13:48;18.70;99.90
1447;DHT22;717;51.522;7.266;2023-09-19T07:16:18;18.70;99.90
1447;DHT22;717;51.522;7.266;2023-09-19T07:18:57;18.80;99.90
1447;DHT22;717;51.522;7.266;2023-09-19T07:21:31;18.70;99.90
1447;DHT22;717;51.522;7.266;2023-09-19T07:24:02;18.70;99.90
1447;DHT22;717;51.522;7.266;2023-09-19T07:26:33;18.80;99.90
1447;DHT22;717;51.522;7.266;2023-09-19T07:29:03;18.80;99.90
1447;DHT22;717;51.522;7.266;2023-09-19T07:31:33;18.80;99.90
1447;DHT22;717;51.522;7.266;2023-09-19T07:34:04;18.80;99.90
1447;DHT22;717;51.522;7.266;2023-09-19T07:36:38;18.90;99.90
1447;DHT22;717;51.522;7.266;2023-09-19T07:39:09;18.90;99.90
1447;DHT22;717;51.522;7.266;2023-09-19T07:41:49;18.80;99.90
1447;DHT22;717;51.522;7.266;2023-09-19T07:44:19;18.90;99.90
1447;DHT22;717;51.522;7.266;2023-09-19T07:46:49;18.90;99.90
1447;DHT22;717;51.522;7.266;2023-09-19T07:49:19;18.90;99.90
1447;DHT22;717;51.522;7.266;2023-09-19T07:51:52;19.00;99.90
1447;DHT22;717;51.522;7.266;2023-09-19T07:54:24;19.00;99.90
1447;DHT22;717;51.522;7.266;2023-09-19T07:56:57;19.10;99.90
1447;DHT22;717;51.522;7.266;2023-09-19T07:59:27;19.10;99.90
1447;DHT22;717;51.522;7.266;2023-09-19T08:01:57;19.20;99.90
1447;DHT22;717;51.522;7.266;2023-09-19T08:04:28;19.20;99.90
1447;DHT22;717;51.522;7.266;2023-09-19T08:07:02;19.20;99.90
1447;DHT22;717;51.522;7.266;2023-09-19T08:09:33;19.20;99.90
1447;DHT22;717;51.522;7.266;2023-09-19T08:12:06;19.10;99.90
1447;DHT22;717;51.522;7.266;2023-09-19T08:14:37;19.10;99.90
1447;DHT22;717;51.522;7.266;2023-09-19T08:17:08;19.10;99.90
1447;DHT22;717;51.522;7.266;2023-09-19T08:19:39;19.20;99.90
1447;DHT22;717;51.522;7.266;2023-09-19T08:22:14;19.20;99.90
1447;DHT22;717;51.522;7.266;2023-09-19T08:24:44;19.20;99.90
1447;DHT22;717;51.522;7.266;2023-09-19T08:27:15;19.20;99.90
1447;DHT22;717;51.522;7.266;2023-09-19T08:29:46;19.20;99.90
1447;DHT22;717;51.522;7.266;2023-09-19T08:32:19;19.30;99.90
1447;DHT22;717;51.522;7.266;2023-09-19T08:34:51;19.30;99.90
1447;DHT22;717;51.522;7.266;2023-09-19T08:37:24;19.20;99.90
1447;DHT22;717;51.522;7.266;2023-09-19T08:39:54;19.20;99.90
1447;DHT22;717;51.522;7.266;2023-09-19T08:42:24;19.30;99.90
1447;DHT22;717;51.522;7.266;2023-09-19T08:44:55;19.30;99.90
1447;DHT22;717;51.522;7.266;2023-09-19T08:47:33;19.30;99.90
1447;DHT22;717;51.522;7.266;2023-09-19T08:50:13;19.40;99.90
1447;DHT22;717;51.522;7.266;2023-09-19T08:52:51;19.50;99.90
1447;DHT22;717;51.522;7.266;2023-09-19T08:55:26;19.50;99.90
1447;DHT22;717;51.522;7.266;2023-09-19T08:58:00;19.60;99.90
1447;DHT22;717;51.522;7.266;2023-09-19T09:00:31;19.60;99.90
1447;DHT22;717;51.522;7.266;2023-09-19T09:03:03;19.60;99.90
1447;DHT22;717;51.522;7.266;2023-09-19T09:05:36;19.60;99.90
1447;DHT22;717;51.522;7.266;2023-09-19T09:08:10;19.70;99.90
1447;DHT22;717;51.522;7.266;2023-09-19T09:10:41;19.70;99.90
1447;DHT22;717;51.522;7.266;2023-09-19T09:13:14;19.70;99.90
1447;DHT22;717;51.522;7.266;2023-09-19T09:15:44;19.60;99.90
1447;DHT22;717;51.522;7.266;2023-09-19T09:18:15;19.70;99.90
1447;DHT22;717;51.522;7.266;2023-09-19T09:20:46;19.80;99.90
1447;DHT22;717;51.522;7.266;2023-09-19T09:23:18;19.70;99.90
1447;DHT22;717;51.522;7.266;2023-09-19T09:25:50;19.80;99.90
1447;DHT22;717;51.522;7.266;2023-09-19T09:28:25;19.80;99.90
1447;DHT22;717;51.522;7.266;2023-09-19T09:30:55;19.80;99.90
1447;DHT22;717;51.522;7.266;2023-09-19T09:33:26;19.90;99.90
1447;DHT22;717;51.522;7.266;2023-09-19T09:36:00;19.90;99.90
1447;DHT22;717;51.522;7.266;2023-09-19T09:38:46;19.90;99.90
1447;DHT22;717;51.522;7.266;2023-09-19T09:41:17;20.00;99.90
1447;DHT22;717;51.522;7.266;2023-09-19T09:43:54;20.10;99.90
1447;DHT22;717;51.522;7.266;2023-09-19T09:46:26;20.20;99.90
1447;DHT22;717;51.522;7.266;2023-09-19T09:49:12;20.20;99.90
1447;DHT22;717;51.522;7.266;2023-09-19T09:52:01;20.20;99.90
1447;DHT22;717;51.522;7.266;2023-09-19T09:54:58;20.20;99.90
1447;DHT22;717;51.522;7.266;2023-09-19T09:57:33;20.10;99.90
1447;DHT22;717;51.522;7.266;2023-09-19T10:00:04;20.10;99.90
1447;DHT22;717;51.522;7.266;2023-09-19T10:02:47;20.20;99.90
1447;DHT22;717;51.522;7.266;2023-09-19T10:05:19;20.20;99.90
1447;DHT22;717;51.522;7.266;2023-09-19T10:07:56;20.20;99.90
1447;DHT22;717;51.522;7.266;2023-09-19T10:10:39;20.20;99.90
1447;DHT22;717;51.522;7.266;2023-09-19T10:13:22;20.20;99.90
1447;DHT22;717;51.522;7.266;2023-09-19T10:15:59;20.30;99.90
1447;DHT22;717;51.522;7.266;2023-09-19T10:18:38;20.30;99.90
1447;DHT22;717;51.522;7.266;2023-09-19T10:21:11;20.30;99.90
1447;DHT22;717;51.522;7.266;2023-09-19T10:23:42;20.40;99.90
1447;DHT22;717;51.522;7.266;2023-09-19T10:26:17;20.40;99.90
1447;DHT22;717;51.522;7.266;2023-09-19T10:28:49;20.60;99.90
1447;DHT22;717;51.522;7.266;2023-09-19T10:31:22;20.60;99.90
1447;DHT22;717;51.522;7.266;2023-09-19T10:33:53;20.70;99.90
1447;DHT22;717;51.522;7.266;2023-09-19T10:36:25;20.80;99.90
1447;DHT22;717;51.522;7.266;2023-09-19T10:38:56;20.80;99.90
1447;DHT22;717;51.522;7.266;2023-09-19T10:41:32;20.80;99.90
1447;DHT22;717;51.522;7.266;2023-09-19T10:44:04;20.90;99.90
1447;DHT22;717;51.522;7.266;2023-09-19T10:46:37;21.00;99.90
1447;DHT22;717;51.522;7.266;2023-09-19T10:49:10;21.10;99.90
1447;DHT22;717;51.522;7.266;2023-09-19T10:51:42;21.20;99.90
1447;DHT22;717;51.522;7.266;2023-09-19T10:54:17;21.20;99.90
1447;DHT22;717;51.522;7.266;2023-09-19T10:56:52;21.20;99.90
1447;DHT22;717;51.522;7.266;2023-09-19T10:59:26;21.20;99.90
1447;DHT22;717;51.522;7.266;2023-09-19T11:02:16;21.20;99.90
1447;DHT22;717;51.522;7.266;2023-09-19T11:04:47;21.20;99.90
1447;DHT22;717;51.522;7.266;2023-09-19T11:07:17;21.20;99.90
1447;DHT22;717;51.522;7.266;2023-09-19T11:09:49;21.20;99.90
1447;DHT22;717;51.522;7.266;2023-09-19T11:12:50;21.20;99.90
1447;DHT22;717;51.522;7.266;2023-09-19T11:21:52;21.30;99.90
1447;DHT22;717;51.522;7.266;2023-09-19T11:24:31;21.40;99.90
1447;DHT22;717;51.522;7.266;2023-09-19T11:27:11;21.50;99.90
1447;DHT22;717;51.522;7.266;2023-09-19T11:29:43;21.60;99.90
1447;DHT22;717;51.522;7.266;2023-09-19T11:32:14;21.60;99.90
1447;DHT22;717;51.522;7.266;2023-09-19T11:34:47;21.70;99.90
1447;DHT22;717;51.522;7.266;2023-09-19T11:40:30;21.70;99.90
1447;DHT22;717;51.522;7.266;2023-09-19T11:43:32;21.80;99.90
1447;DHT22;717;51.522;7.266;2023-09-19T11:46:11;21.90;99.90
1447;DHT22;717;51.522;7.266;2023-09-19T11:48:43;21.90;99.90
1447;DHT22;717;51.522;7.266;2023-09-19T11:51:16;21.90;99.90
1447;DHT22;717;51.522;7.266;2023-09-19T11:53:51;22.00;99.90
1447;DHT22;717;51.522;7.266;2023-09-19T11:56:23;21.90;99.90
1447;DHT22;717;51.522;7.266;2023-09-19T11:58:56;22.00;99.90
1447;DHT22;717;51.522;7.266;2023-09-19T12:01:32;22.00;99.90
1447;DHT22;717;51.522;7.266;2023-09-19T12:04:03;22.00;99.90
1447;DHT22;717;51.522;7.266;2023-09-19T12:06:34;22.10;99.90
1447;DHT22;717;51.522;7.266;2023-09-19T12:09:13;22.10;99.90
1447;DHT22;717;51.522;7.266;2023-09-19T12:11:44;22.10;99.90
1447;DHT22;717;51.522;7.266;2023-09-19T12:14:22;22.10;99.90
1447;DHT22;717;51.522;7.266;2023-09-19T12:16:57;22.20;99.90
1447;DHT22;717;51.522;7.266;2023-09-19T12:19:29;22.20;99.90
1447;DHT22;717;51.522;7.266;2023-09-19T12:22:00;22.20;99.90
1447;DHT22;717;51.522;7.266;2023-09-19T12:24:33;22.30;99.90
1447;DHT22;717;51.522;7.266;2023-09-19T12:27:06;22.30;99.90
1447;DHT22;717;51.522;7.266;2023-09-19T12:29:43;22.30;99.90
1447;DHT22;717;51.522;7.266;2023-09-19T12:32:16;22.40;99.90
1447;DHT22;717;51.522;7.266;2023-09-19T12:34:51;22.40;99.90
1447;DHT22;717;51.522;7.266;2023-09-19T12:37:22;22.40;99.90
1447;DHT22;717;51.522;7.266;2023-09-19T12:40:04;22.50;99.90
1447;DHT22;717;51.522;7.266;2023-09-19T12:42:43;22.60;99.90
1447;DHT22;717;51.522;7.266;2023-09-19T12:45:14;22.50;99.90
1447;DHT22;717;51.522;7.266;2023-09-19T12:51:04;22.50;99.90
1447;DHT22;717;51.522;7.266;2023-09-19T12:53:38;22.50;99.90
1447;DHT22;717;51.522;7.266;2023-09-19T12:56:12;22.50;99.90
1447;DHT22;717;51.522;7.266;2023-09-19T12:58:51;22.50;99.90
1447;DHT22;717;51.522;7.266;2023-09-19T13:01:22;22.60;99.90
1447;DHT22;717;51.522;7.266;2023-09-19T13:04:14;22.60;99.90
1447;DHT22;717;51.522;7.266;2023-09-19T13:06:49;22.60;99.90
1447;DHT22;717;51.522;7.266;2023-09-19T13:09:21;22.70;99.90
1447;DHT22;717;51.522;7.266;2023-09-19T13:11:58;22.70;99.90
1447;DHT22;717;51.522;7.266;2023-09-19T13:14:30;22.70;99.90
1447;DHT22;717;51.522;7.266;2023-09-19T13:17:08;22.80;99.90
1447;DHT22;717;51.522;7.266;2023-09-19T13:19:45;22.90;99.90
1447;DHT22;717;51.522;7.266;2023-09-19T13:22:40;22.90;99.90
1447;DHT22;717;51.522;7.266;2023-09-19T13:25:14;23.00;99.90
1447;DHT22;717;51.522;7.266;2023-09-19T13:27:47;23.00;99.90
1447;DHT22;717;51.522;7.266;2023-09-19T13:30:20;23.00;99.90
1447;DHT22;717;51.522;7.266;2023-09-19T13:32:50;23.00;99.90
1447;DHT22;717;51.522;7.266;2023-09-19T13:35:21;23.10;99.90
1447;DHT22;717;51.522;7.266;2023-09-19T13:37:53;23.10;99.90
1447;DHT22;717;51.522;7.266;2023-09-19T13:40:23;23.20;99.90
1447;DHT22;717;51.522;7.266;2023-09-19T13:43:02;23.20;99.90
1447;DHT22;717;51.522;7.266;2023-09-19T13:45:34;23.20;99.90
1447;DHT22;717;51.522;7.266;2023-09-19T13:48:05;23.20;99.90
1447;DHT22;717;51.522;7.266;2023-09-19T13:50:35;23.20;99.80
1447;DHT22;717;51.522;7.266;2023-09-19T13:53:12;23.20;99.60
1447;DHT22;717;51.522;7.266;2023-09-19T13:55:42;23.20;99.60
1447;DHT22;717;51.522;7.266;2023-09-19T13:58:13;23.30;99.60
1447;DHT22;717;51.522;7.266;2023-09-19T14:00:43;23.30;99.60
1447;DHT22;717;51.522;7.266;2023-09-19T14:03:13;23.30;99.70
1447;DHT22;717;51.522;7.266;2023-09-19T14:05:44;23.30;99.70
1447;DHT22;717;51.522;7.266;2023-09-19T14:08:17;23.20;99.80
1447;DHT22;717;51.522;7.266;2023-09-19T14:10:49;23.30;99.70
1447;DHT22;717;51.522;7.266;2023-09-19T14:13:20;23.20;99.60
1447;DHT22;717;51.522;7.266;2023-09-19T14:15:53;23.10;99.70
1447;DHT22;717;51.522;7.266;2023-09-19T14:18:23;23.10;99.80
1447;DHT22;717;51.522;7.266;2023-09-19T14:20:53;23.00;99.90
1447;DHT22;717;51.522;7.266;2023-09-19T14:23:26;22.90;99.90
1447;DHT22;717;51.522;7.266;2023-09-19T14:25:56;22.90;99.90
1447;DHT22;717;51.522;7.266;2023-09-19T14:28:26;22.90;99.90
1447;DHT22;717;51.522;7.266;2023-09-19T14:30:57;22.80;99.90
1447;DHT22;717;51.522;7.266;2023-09-19T14:33:30;22.80;99.90
1447;DHT22;717;51.522;7.266;2023-09-19T14:36:02;22.80;99.90
1447;DHT22;717;51.522;7.266;2023-09-19T14:38:37;22.70;99.90
1447;DHT22;717;51.522;7.266;2023-09-19T14:41:08;22.70;99.90
1447;DHT22;717;51.522;7.266;2023-09-19T14:43:38;22.70;99.90
1447;DHT22;717;51.522;7.266;2023-09-19T14:46:08;22.70;99.90
1447;DHT22;717;51.522;7.266;2023-09-19T14:48:38;22.70;99.90
1447;DHT22;717;51.522;7.266;2023-09-19T14:51:09;22.60;99.90
1447;DHT22;717;51.522;7.266;2023-09-19T14:53:42;22.60;99.90
1447;DHT22;717;51.522;7.266;2023-09-19T14:56:13;22.60;99.90
1447;DHT22;717;51.522;7.266;2023-09-19T14:58:47;22.60;99.90
1447;DHT22;717;51.522;7.266;2023-09-19T15:01:17;22.60;99.90
1447;DHT22;717;51.522;7.266;2023-09-19T15:03:49;22.60;99.90
1447;DHT22;717;51.522;7.266;2023-09-19T15:06:21;22.50;99.90
1447;DHT22;717;51.522;7.266;2023-09-19T15:08:56;22.50;99.90
1447;DHT22;717;51.522;7.266;2023-09-19T15:11:26;22.50;99.90
1447;DHT22;717;51.522;7.266;2023-09-19T15:13:56;22.40;99.90
1447;DHT22;717;51.522;7.266;2023-09-19T15:16:26;22.40;99.90
1447;DHT22;717;51.522;7.266;2023-09-19T15:18:57;22.40;99.90
1447;DHT22;717;51.522;7.266;2023-09-19T15:21:27;22.50;99.90
1447;DHT22;717;51.522;7.266;2023-09-19T15:23:59;22.40;99.90
1447;DHT22;717;51.522;7.266;2023-09-19T15:26:30;22.40;99.90
1447;DHT22;717;51.522;7.266;2023-09-19T15:29:00;22.40;99.90
1447;DHT22;717;51.522;7.266;2023-09-19T15:31:30;22.40;99.90
1447;DHT22;717;51.522;7.266;2023-09-19T15:34:00;22.30;99.90
1447;DHT22;717;51.522;7.266;2023-09-19T15:36:30;22.30;99.90
1447;DHT22;717;51.522;7.266;2023-09-19T15:39:05;22.20;99.90
1447;DHT22;717;51.522;7.266;2023-09-19T15:41:39;22.20;99.90
1447;DHT22;717;51.522;7.266;2023-09-19T15:44:14;22.20;99.90
1447;DHT22;717;51.522;7.266;2023-09-19T15:46:46;22.20;99.90
1447;DHT22;717;51.522;7.266;2023-09-19T15:49:16;22.20;99.90
1447;DHT22;717;51.522;7.266;2023-09-19T15:51:47;22.20;99.90
1447;DHT22;717;51.522;7.266;2023-09-19T15:54:19;22.30;99.90
1447;DHT22;717;51.522;7.266;2023-09-19T15:56:49;22.30;99.90
1447;DHT22;717;51.522;7.266;2023-09-19T15:59:19;22.30;99.90
1447;DHT22;717;51.522;7.266;2023-09-19T16:01:50;22.30;99.90
1447;DHT22;717;51.522;7.266;2023-09-19T16:04:20;22.30;99.90
1447;DHT22;717;51.522;7.266;2023-09-19T16:06:51;22.30;99.90
1447;DHT22;717;51.522;7.266;2023-09-19T16:09:24;22.30;99.90
1447;DHT22;717;51.522;7.266;2023-09-19T16:11:54;22.30;99.90
1447;DHT22;717;51.522;7.266;2023-09-19T16:14:24;22.30;99.90
1447;DHT22;717;51.522;7.266;2023-09-19T16:16:56;22.20;99.90
1447;DHT22;717;51.522;7.266;2023-09-19T16:19:27;22.20;99.90
1447;DHT22;717;51.522;7.266;2023-09-19T16:21:57;22.30;99.90
1447;DHT22;717;51.522;7.266;2023-09-19T16:24:30;22.20;99.90
1447;DHT22;717;51.522;7.266;2023-09-19T16:27:00;22.20;99.90
1447;DHT22;717;51.522;7.266;2023-09-19T16:29:31;22.20;99.90
1447;DHT22;717;51.522;7.266;2023-09-19T16:32:01;22.20;99.90
1447;DHT22;717;51.522;7.266;2023-09-19T16:34:31;22.20;99.90
1447;DHT22;717;51.522;7.266;2023-09-19T16:37:01;22.10;99.90
1447;DHT22;717;51.522;7.266;2023-09-19T16:39:34;22.10;99.90
1447;DHT22;717;51.522;7.266;2023-09-19T16:42:04;22.20;99.90
1447;DHT22;717;51.522;7.266;2023-09-19T16:44:47;22.10;99.90
1447;DHT22;717;51.522;7.266;2023-09-19T16:47:17;22.20;99.90
1447;DHT22;717;51.522;7.266;2023-09-19T16:49:47;22.10;99.90
1447;DHT22;717;51.522;7.266;2023-09-19T16:52:17;22.10;99.90
1447;DHT22;717;51.522;7.266;2023-09-19T16:54:51;22.10;99.90
1447;DHT22;717;51.522;7.266;2023-09-19T16:57:21;22.10;99.90
1447;DHT22;717;51.522;7.266;2023-09-19T16:59:51;22.10;99.90
1447;DHT22;717;51.522;7.266;2023-09-19T17:02:23;22.10;99.90
1447;DHT22;717;51.522;7.266;2023-09-19T17:04:55;22.10;99.90
1447;DHT22;717;51.522;7.266;2023-09-19T17:07:25;22.00;99.90